WetterOnline ( http://www.wetteronline.de )

Wetter aktuell Südschwarzwald (in 1400m)

Aktuelles Wetter: Feldberg/Schwarzwald (1493m)

6-stündlich | Neueste Meldungen
Ortszeit Temperatur Wetter
Di, 19.06. 2:00 9.8° C wolkenlos
Mo, 18.06. 20:00 11.7° C wolkenlos
Mo, 18.06. 14:00 10.9° C bewölkt
Mo, 18.06. 8:00 8.2° C leicht bewölkt
Mo, 18.06. 2:00 8.2° C Nebel
So, 17.06. 20:00 9.6° C bewölkt
So, 17.06. 14:00 11.6° C bewölkt
So, 17.06. 8:00 9.0° C bedeckt
Ortszeit Temperatur Wetter
Di, 19.06. 6:30 9.4° C Nebel
Di, 19.06. 6:20 9.4° C Nebel
Di, 19.06. 6:10 9.5° C Nebel
Di, 19.06. 6:00 9.5° C bedeckt
Di, 19.06. 5:50 9.5° C bedeckt
Di, 19.06. 5:40 9.5° C bewölkt
Di, 19.06. 5:30 9.3° C bewölkt
Di, 19.06. 5:00 9.4° C wolkig
Di, 19.06. 4:30 9.5° C wolkenlos
Di, 19.06. 4:00 9.1° C wolkenlos
Di, 19.06. 3:30 9.3° C fast wolkenlos
Ortszeit Relative Feuchte Sichtweite
Di, 19.06. 2:00 93% 18 km
Mo, 18.06. 20:00 81% 50 km
Mo, 18.06. 14:00 81% 40 km
Mo, 18.06. 8:00 89% 30 km
Mo, 18.06. 2:00 99% 100 m
So, 17.06. 20:00 93% 16 km
So, 17.06. 14:00 83% 29 km
So, 17.06. 8:00 99% 4.6 km
Ortszeit Relative Feuchte Sichtweite
Di, 19.06. 6:30 99% <100 m
Di, 19.06. 6:20 99% -
Di, 19.06. 6:10 98% -
Di, 19.06. 6:00 95% 15 km
Di, 19.06. 5:50 95% -
Di, 19.06. 5:40 95% -
Di, 19.06. 5:30 95% 14 km
Di, 19.06. 5:00 95% 15 km
Di, 19.06. 4:30 95% 16 km
Di, 19.06. 4:00 96% 10 km
Di, 19.06. 3:30 94% 20 km
Ortszeit Niederschlagsmenge Niederschlagsart
Di, 19.06. 2:00 0.0 l/m2 in 6 Std. -
Mo, 18.06. 20:00 0.0 l/m2 in 12 Std. -
Mo, 18.06. 14:00 0.0 l/m2 in 6 Std. -
Mo, 18.06. 8:00 0.3 l/m2 in 12 Std. -
Mo, 18.06. 2:00 0.3 l/m2 in 6 Std. Regen
So, 17.06. 20:00 0.0 l/m2 in 12 Std. -
So, 17.06. 14:00 0.0 l/m2 in 6 Std. -
So, 17.06. 8:00 0.0 l/m2 in 12 Std. -
Ortszeit Niederschlagsmenge Niederschlagsart
Di, 19.06. 6:30 0.0 l/m2 in 1 Std. -
Di, 19.06. 6:20 keine Meldung -
Di, 19.06. 6:10 keine Meldung -
Di, 19.06. 6:00 0.0 l/m2 in 1 Std. -
Di, 19.06. 5:50 keine Meldung -
Di, 19.06. 5:40 keine Meldung -
Di, 19.06. 5:30 0.0 l/m2 in 1 Std. -
Di, 19.06. 5:00 0.0 l/m2 in 1 Std. -
Di, 19.06. 4:30 0.0 l/m2 in 1 Std. -
Di, 19.06. 4:00 0.0 l/m2 in 1 Std. -
Di, 19.06. 3:30 0.0 l/m2 in 1 Std. -
Ortszeit Stärke Spitze Richtung
km/h Bft. km/h Grad Sektor
Di, 19.06. 2:00 4 1 18 280° W
Mo, 18.06. 20:00 13 3 26 340° N
Mo, 18.06. 14:00 11 2 25 290° W
Mo, 18.06. 8:00 9 2 19 290° W
Mo, 18.06. 2:00 9 2 31 300° NW
So, 17.06. 20:00 18 3 36 290° W
So, 17.06. 14:00 14 3 29 280° W
So, 17.06. 8:00 14 3 29 340° N
Ortszeit Stärke Spitze Richtung
km/h Bft. km/h Grad Sektor
Di, 19.06. 6:30 7 2 11 350° N
Di, 19.06. 6:20 7 2 - 350° N
Di, 19.06. 6:10 7 2 - 350° N
Di, 19.06. 6:00 7 2 11 320° NW
Di, 19.06. 5:50 7 2 - 320° NW
Di, 19.06. 5:40 7 2 - 310° NW
Di, 19.06. 5:30 7 2 11 330° NW
Di, 19.06. 5:00 9 2 13 330° NW
Di, 19.06. 4:30 11 2 14 320° NW
Di, 19.06. 4:00 7 2 13 350° N
Di, 19.06. 3:30 11 2 14 340° N
Ortszeit Untergrenze Bedeckung Gattung
total tief tief mittel hoch
Di, 19.06. 2:00 - 0/8 0/8 - - -
Mo, 18.06. 20:00 - 0/8 0/8 - - -
Mo, 18.06. 14:00 390 m 7/8 7/8 - - -
Mo, 18.06. 8:00 1800 m 4/8 4/8 - - -
Mo, 18.06. 2:00 <30 m 7/8 7/8 - - -
So, 17.06. 20:00 150 m 8/8 7/8 - - -
So, 17.06. 14:00 90 m 7/8 7/8 - - -
So, 17.06. 8:00 30 m 8/8 8/8 - - -
Ortszeit Bedeckungsgrad in Achtel und Wolkenuntergrenze
Di, 19.06. 6:30 5(<30m) 8(240m)
Di, 19.06. 6:20 5(<30m) 8(240m)
Di, 19.06. 6:10 2(<30m) 4(150m) 8(270m)
Di, 19.06. 6:00 4(150m) 8(270m)
Di, 19.06. 5:50 4(150m) 8(270m)
Di, 19.06. 5:40 5(150m) 7(270m)
Di, 19.06. 5:30 7(120m) 7(300m)
Di, 19.06. 5:00 5(120m)
Di, 19.06. 4:30 keine Wolken
Di, 19.06. 4:00 keine Wolken
Di, 19.06. 3:30 2(12000m)
Ortszeit Stationsdruck (hPa) Tendenz (hPa in 3 Std.)
Di, 19.06. 2:00 858 - 0,3
Mo, 18.06. 20:00 858 + 0,3
Mo, 18.06. 14:00 858 + 0,7
Mo, 18.06. 8:00 856 + 0,4
Mo, 18.06. 2:00 856 + 0,4
So, 17.06. 20:00 855 + 0,3
So, 17.06. 14:00 854 + 0,2
So, 17.06. 8:00 853 + 0,2
Ortszeit Stationsdruck (hPa) Tendenz (hPa in 3 Std.)
Di, 19.06. 6:30 859 + 0,6
Di, 19.06. 6:20 859 keine Meldung
Di, 19.06. 6:10 859 keine Meldung
Di, 19.06. 6:00 859 + 0,5
Di, 19.06. 5:50 859 keine Meldung
Di, 19.06. 5:40 859 keine Meldung
Di, 19.06. 5:30 859 + 0,5
Di, 19.06. 5:00 859 + 0,4
Di, 19.06. 4:30 859 + 0,1
Di, 19.06. 4:00 859 + 0,1
Di, 19.06. 3:30 859 0,0
Ortszeit Schneehöhe (cm)
Di, 19.06. 2:00 0
Mo, 18.06. 20:00 0
Mo, 18.06. 14:00 0
Mo, 18.06. 8:00 0
Mo, 18.06. 2:00 0
So, 17.06. 20:00 0
So, 17.06. 14:00 0
So, 17.06. 8:00 0
Ortszeit Schneehöhe (cm)
Di, 19.06. 6:30 0
Di, 19.06. 6:20 0
Di, 19.06. 6:10 0
Di, 19.06. 6:00 0
Di, 19.06. 5:50 0
Di, 19.06. 5:40 0
Di, 19.06. 5:30 0
Di, 19.06. 5:00 0
Di, 19.06. 4:30 0
Di, 19.06. 4:00 0
Di, 19.06. 3:30 0
Link zu dieser Seite / Seite empfehlen

Das Wetter in ...